Terminal Aerodrome Forecast
Issued by NWS Mt. Holly, NJ

Home | Current Version | Previous Version | Text Only | Print | Product List | Glossary On
Versions: 1 2 3 4 5 6 7 8 9 10 11 12 13 14
000
FTUS41 KPHI 251128
TAFRDG
TAF
KRDG 251128Z 2512/2612 00000KT P6SM VCSH BKN100
     FM251500 34002KT P6SM OVC050
      TEMPO 2519/2523 5SM -SHRA BR OVC025
     FM260000 05006KT 4SM BR OVC015
     FM260600 05005KT 5SM BR OVC005
     FM260900 08005KT P6SM OVC008=

USA.gov is the U.S. government's official web portal to all federal, state and local government web resources and services.